Time;durP1;ratioP1;P1;durP2;ratioP2;P2;SDS_P1;SDS_P2;PMS_P1;PMS_P2;Temp;Humidity;BMP_temperature;BMP_pressure;BME280_temperature;BME280_humidity;BME280_pressure;Samples;Min_cycle;Max_cycle;Signal;HPM_P1;HPM_P2
2022/08/19 00:00:29;;;;;;;;;;;;;;;;;;5019051;28;19929;-61
2022/08/19 00:02:54;;;;;;;;;;;;;;;;;;5002517;28;19909;-67
2022/08/19 00:05:20;;;;;;;;;;;;;;;;;;4996544;28;19918;-67
2022/08/19 00:07:45;;;;;;;;;;;;;;;;;;5002846;28;20362;-68
2022/08/19 00:10:10;;;;;;;;;;;;;;;;;;5009744;28;20004;-69
2022/08/19 00:12:35;;;;;;;;;;;;;;;;;;5007114;28;20393;-69
2022/08/19 00:15:01;;;;;;;;;;;;;;;;;;5001624;28;19913;-68
2022/08/19 00:17:26;;;;;;;;;;;;;;;;;;5010506;28;19925;-68
2022/08/19 00:19:51;;;;;;;;;;;;;;;;;;5014620;28;19960;-68
2022/08/19 00:22:17;;;;;;;;;;;;;;;;;;5004098;28;19922;-68
2022/08/19 00:24:43;;;;;;;;;;;;;;;;;;5011524;28;19917;-68
2022/08/19 00:27:08;;;;;;;;;;;;;;;;;;5008142;28;19909;-68
2022/08/19 00:29:34;;;;;;;;;;;;;;;;;;4996572;28;19920;-68
2022/08/19 00:31:59;;;;;;;;;;;;;;;;;;5005349;28;19910;-69
2022/08/19 00:34:27;;;;;;;;;;;;;;;;;;5000586;28;20298;-69
2022/08/19 00:36:52;;;;;;;;;;;;;;;;;;5009766;28;19910;-68
2022/08/19 00:39:17;;;;;;;;;;;;;;;;;;5003079;28;19913;-67
2022/08/19 00:41:43;;;;;;;;;;;;;;;;;;5005134;28;20297;-68
2022/08/19 00:44:08;;;;;;;;;;;;;;;;;;5004158;28;20346;-67
2022/08/19 00:46:33;;;;;;;;;;;;;;;;;;5009704;28;19913;-69
2022/08/19 00:48:58;;;;;;;;;;;;;;;;;;4984440;28;19931;-67
2022/08/19 00:51:24;;;;;;;;;;;;;;;;;;5008888;28;19929;-67
2022/08/19 00:53:50;;;;;;;;;;;;;;;;;;5008598;28;19913;-67
2022/08/19 00:56:16;;;;;;;;;;;;;;;;;;4991971;28;20282;-67
2022/08/19 00:58:41;;;;;;;;;;;;;;;;;;4996423;28;19913;-68
2022/08/19 01:01:07;;;;;;;;;;;;;;;;;;5008374;28;20041;-69
2022/08/19 01:03:32;;;;;;;;;;;;;;;;;;5008520;28;19976;-69
2022/08/19 01:05:57;;;;;;;;;;;;;;;;;;5012989;28;19917;-68
2022/08/19 01:08:23;;;;;;;;;;;;;;;;;;5001535;28;19914;-69
2022/08/19 01:10:48;;;;;;;;;;;;;;;;;;4980960;28;19937;-68
2022/08/19 01:13:13;;;;;;;;;;;;;;;;;;4992037;28;19957;-69
2022/08/19 01:15:38;;;;;;;;;;;;;;;;;;4989653;28;20286;-67
2022/08/19 01:18:03;;;;;;;;;;;;;;;;;;5000877;28;20353;-68
2022/08/19 01:20:28;;;;;;;;;;;;;;;;;;4994978;28;20408;-68
2022/08/19 01:22:53;;;;;;;;;;;;;;;;;;5006375;28;20282;-68
2022/08/19 01:25:19;;;;;;;;;;;;;;;;;;5010511;28;20271;-67
2022/08/19 01:27:44;;;;;;;;;;;;;;;;;;5013570;28;19949;-67
2022/08/19 01:30:09;;;;;;;;;;;;;;;;;;5010400;28;19921;-67
2022/08/19 01:32:34;;;;;;;;;;;;;;;;;;5004930;28;19917;-68
2022/08/19 01:35:02;;;;;;;;;;;;;;;;;;5000140;28;19920;-68
2022/08/19 01:37:27;;;;;;;;;;;;;;;;;;5012176;28;19917;-67
2022/08/19 01:39:52;;;;;;;;;;;;;;;;;;5003071;28;19917;-68
2022/08/19 01:42:18;;;;;;;;;;;;;;;;;;4999455;28;19961;-67
2022/08/19 01:44:43;;;;;;;;;;;;;;;;;;4993709;28;19914;-68
2022/08/19 01:47:09;;;;;;;;;;;;;;;;;;5008956;28;19910;-68
2022/08/19 01:49:34;;;;;;;;;;;;;;;;;;5011806;28;19919;-69
2022/08/19 01:51:59;;;;;;;;;;;;;;;;;;4996637;28;19922;-67
2022/08/19 01:54:24;;;;;;;;;;;;;;;;;;4998936;28;19924;-67
2022/08/19 01:56:50;;;;;;;;;;;;;;;;;;4991817;28;19939;-67
2022/08/19 01:59:15;;;;;;;;;;;;;;;;;;5008365;28;20409;-68
2022/08/19 02:01:40;;;;;;;;;;;;;;;;;;5005629;28;19920;-68
2022/08/19 02:04:05;;;;;;;;;;;;;;;;;;4993756;28;19929;-68
2022/08/19 02:06:30;;;;;;;;;;;;;;;;;;4992712;28;20267;-68
2022/08/19 02:08:55;;;;;;;;;;;;;;;;;;5001071;28;19924;-68
2022/08/19 02:11:21;;;;;;;;;;;;;;;;;;5010076;28;19917;-69
2022/08/19 02:13:46;;;;;;;;;;;;;;;;;;5008771;28;19969;-69
2022/08/19 02:16:11;;;;;;;;;;;;;;;;;;5012356;28;19910;-68
2022/08/19 02:18:36;;;;;;;;;;;;;;;;;;5008370;28;19995;-68
2022/08/19 02:21:01;;;;;;;;;;;;;;;;;;4992894;28;20048;-68
2022/08/19 02:23:27;;;;;;;;;;;;;;;;;;5005636;28;19917;-68
2022/08/19 02:25:52;;;;;;;;;;;;;;;;;;4987185;28;19918;-68
2022/08/19 02:28:17;;;;;;;;;;;;;;;;;;5008671;28;19913;-68
2022/08/19 02:30:42;;;;;;;;;;;;;;;;;;5004470;28;20366;-68
2022/08/19 02:33:07;;;;;;;;;;;;;;;;;;4998131;28;19918;-68
2022/08/19 02:35:32;;;;;;;;;;;;;;;;;;5012631;28;20328;-68
2022/08/19 02:40:41;;;;;;;;;;;;;;;;;;5004697;28;19920;-69
2022/08/19 02:43:07;;;;;;;;;;;;;;;;;;5006687;28;20192;-67
2022/08/19 02:45:32;;;;;;;;;;;;;;;;;;4993640;28;19961;-68
2022/08/19 02:47:58;;;;;;;;;;;;;;;;;;4998813;28;19910;-68
2022/08/19 02:50:23;;;;;;;;;;;;;;;;;;5005363;28;19915;-68
2022/08/19 02:52:48;;;;;;;;;;;;;;;;;;5007787;28;20360;-68
2022/08/19 02:55:13;;;;;;;;;;;;;;;;;;5002632;28;19914;-67
2022/08/19 02:57:38;;;;;;;;;;;;;;;;;;4988885;28;19914;-68
2022/08/19 03:00:03;;;;;;;;;;;;;;;;;;5008386;28;20297;-67
2022/08/19 03:02:30;;;;;;;;;;;;;;;;;;5004071;28;19918;-67
2022/08/19 03:04:55;;;;;;;;;;;;;;;;;;5002875;28;19918;-68
2022/08/19 03:07:20;;;;;;;;;;;;;;;;;;5002165;28;20290;-67
2022/08/19 03:09:45;;;;;;;;;;;;;;;;;;5013040;28;20374;-67
2022/08/19 03:12:10;;;;;;;;;;;;;;;;;;5005088;28;20036;-67
2022/08/19 03:14:36;;;;;;;;;;;;;;;;;;5015200;28;19917;-67
2022/08/19 03:17:01;;;;;;;;;;;;;;;;;;5014200;28;20004;-67
2022/08/19 03:19:27;;;;;;;;;;;;;;;;;;4999386;28;19940;-67
2022/08/19 03:21:52;;;;;;;;;;;;;;;;;;5006075;28;19913;-67
2022/08/19 03:24:18;;;;;;;;;;;;;;;;;;5013928;28;19917;-67
2022/08/19 03:26:43;;;;;;;;;;;;;;;;;;5015004;28;19992;-69
2022/08/19 03:29:10;;;;;;;;;;;;;;;;;;5007302;28;20546;-68
2022/08/19 03:31:35;;;;;;;;;;;;;;;;;;5005923;28;19917;-69
2022/08/19 03:34:00;;;;;;;;;;;;;;;;;;5011406;28;19913;-69
2022/08/19 03:36:25;;;;;;;;;;;;;;;;;;5014206;28;19917;-69
2022/08/19 03:38:51;;;;;;;;;;;;;;;;;;5006938;28;19920;-69
2022/08/19 03:41:16;;;;;;;;;;;;;;;;;;5002964;28;20008;-70
2022/08/19 03:43:41;;;;;;;;;;;;;;;;;;5008901;28;19913;-69
2022/08/19 03:46:06;;;;;;;;;;;;;;;;;;5013002;28;19925;-68
2022/08/19 03:48:31;;;;;;;;;;;;;;;;;;4997837;28;19921;-69
2022/08/19 03:50:58;;;;;;;;;;;;;;;;;;4991361;28;20345;-69
2022/08/19 03:53:23;;;;;;;;;;;;;;;;;;4993923;28;20349;-68
2022/08/19 03:55:48;;;;;;;;;;;;;;;;;;5000966;28;19917;-68
2022/08/19 03:58:14;;;;;;;;;;;;;;;;;;5008092;28;20001;-67
2022/08/19 04:00:39;;;;;;;;;;;;;;;;;;5006107;28;19918;-68
2022/08/19 04:03:04;;;;;;;;;;;;;;;;;;5019037;28;19917;-68
2022/08/19 04:05:30;;;;;;;;;;;;;;;;;;5012583;28;20016;-67
2022/08/19 04:07:58;;;;;;;;;;;;;;;;;;5009120;28;20277;-68
2022/08/19 04:10:23;;;;;;;;;;;;;;;;;;5002945;28;20373;-68
2022/08/19 04:12:49;;;;;;;;;;;;;;;;;;5011328;28;19963;-67
2022/08/19 04:15:15;;;;;;;;;;;;;;;;;;4993858;28;20012;-68
2022/08/19 04:17:40;;;;;;;;;;;;;;;;;;5003340;28;20434;-68
2022/08/19 04:20:05;;;;;;;;;;;;;;;;;;5005259;28;20012;-68
2022/08/19 04:22:30;;;;;;;;;;;;;;;;;;4993771;28;19913;-68
2022/08/19 04:24:56;;;;;;;;;;;;;;;;;;4997599;28;19918;-68
2022/08/19 04:27:21;;;;;;;;;;;;;;;;;;4995581;28;19913;-68
2022/08/19 04:29:47;;;;;;;;;;;;;;;;;;5007911;28;19917;-68
2022/08/19 04:32:14;;;;;;;;;;;;;;;;;;4990643;28;20289;-68
2022/08/19 04:34:40;;;;;;;;;;;;;;;;;;5003563;28;20060;-68
2022/08/19 04:37:12;;;;;;;;;;;;;;;;;;5010679;28;20008;-69
2022/08/19 04:42:39;;;;;;;;;;;;;;;;;;5014015;28;19921;-69
2022/08/19 04:45:05;;;;;;;;;;;;;;;;;;5008555;28;19921;-68
2022/08/19 04:47:32;;;;;;;;;;;;;;;;;;4997576;28;20009;-69
2022/08/19 04:49:57;;;;;;;;;;;;;;;;;;5010348;28;19917;-69
2022/08/19 04:52:22;;;;;;;;;;;;;;;;;;4996864;28;19914;-69
2022/08/19 04:54:48;;;;;;;;;;;;;;;;;;5013045;28;19971;-69
2022/08/19 04:57:13;;;;;;;;;;;;;;;;;;5012089;28;19912;-69
2022/08/19 04:59:38;;;;;;;;;;;;;;;;;;4984265;28;20362;-69
2022/08/19 05:02:03;;;;;;;;;;;;;;;;;;5010006;28;20334;-69
2022/08/19 05:04:30;;;;;;;;;;;;;;;;;;5008400;28;19921;-69
2022/08/19 05:06:55;;;;;;;;;;;;;;;;;;4989025;28;19917;-69
2022/08/19 05:09:21;;;;;;;;;;;;;;;;;;5001234;28;19913;-68
2022/08/19 05:11:46;;;;;;;;;;;;;;;;;;5027744;28;19955;-68
2022/08/19 05:14:12;;;;;;;;;;;;;;;;;;5001349;28;19972;-68
2022/08/19 05:16:37;;;;;;;;;;;;;;;;;;5005096;28;19917;-68
2022/08/19 05:24:33;;;;;;;;;;;;;;;;;;4998749;28;20000;-68
2022/08/19 05:26:59;;;;;;;;;;;;;;;;;;4996682;28;20088;-67
2022/08/19 05:29:24;;;;;;;;;;;;;;;;;;4989903;28;20000;-68
2022/08/19 05:31:49;;;;;;;;;;;;;;;;;;5012203;28;19913;-68
2022/08/19 05:34:14;;;;;;;;;;;;;;;;;;4993415;28;19913;-66
2022/08/19 05:36:40;;;;;;;;;;;;;;;;;;5009912;28;19967;-67
2022/08/19 05:39:05;;;;;;;;;;;;;;;;;;5009891;28;19920;-68
2022/08/19 05:41:30;;;;;;;;;;;;;;;;;;5010731;28;19952;-67
2022/08/19 05:43:56;;;;;;;;;;;;;;;;;;4995475;28;19913;-68
2022/08/19 05:46:22;;;;;;;;;;;;;;;;;;5007589;28;19921;-68
2022/08/19 05:48:48;;;;;;;;;;;;;;;;;;5008270;28;19914;-68
2022/08/19 05:51:13;;;;;;;;;;;;;;;;;;5003893;28;19924;-68
2022/08/19 05:53:38;;;;;;;;;;;;;;;;;;5003347;28;19917;-69
2022/08/19 05:56:03;;;;;;;;;;;;;;;;;;5007569;28;20025;-68
2022/08/19 05:58:28;;;;;;;;;;;;;;;;;;4995308;28;19920;-67
2022/08/19 06:00:54;;;;;;;;;;;;;;;;;;5011469;28;20240;-67
2022/08/19 06:03:19;;;;;;;;;;;;;;;;;;5011898;28;19921;-64
2022/08/19 06:05:45;;;;;;;;;;;;;;;;;;5004141;28;20389;-63
2022/08/19 06:08:10;;;;;;;;;;;;;;;;;;5005037;28;19976;-64
2022/08/19 06:10:36;;;;;;;;;;;;;;;;;;5011181;28;19961;-64
2022/08/19 06:13:02;;;;;;;;;;;;;;;;;;5020919;28;19937;-64
2022/08/19 06:15:27;;;;;;;;;;;;;;;;;;5007950;28;20313;-64
2022/08/19 06:17:52;;;;;;;;;;;;;;;;;;5001878;28;19922;-64
2022/08/19 06:20:19;;;;;;;;;;;;;;;;;;4989183;28;20322;-63
2022/08/19 06:22:44;;;;;;;;;;;;;;;;;;4990089;28;19913;-64
2022/08/19 06:25:09;;;;;;;;;;;;;;;;;;4988278;28;19918;-64
2022/08/19 06:27:34;;;;;;;;;;;;;;;;;;4998362;28;19921;-64
2022/08/19 06:29:59;;;;;;;;;;;;;;;;;;4987864;28;19968;-64
2022/08/19 06:32:24;;;;;;;;;;;;;;;;;;4990321;28;19914;-63
2022/08/19 06:34:50;;;;;;;;;;;;;;;;;;4987471;28;19918;-63
2022/08/19 06:37:15;;;;;;;;;;;;;;;;;;4983578;28;19918;-63
2022/08/19 06:39:40;;;;;;;;;;;;;;;;;;4985846;28;21066;-63
2022/08/19 06:42:06;;;;;;;;;;;;;;;;;;4984597;28;19914;-64
2022/08/19 06:44:34;;;;;;;;;;;;;;;;;;4987474;28;20386;-63
2022/08/19 06:46:59;;;;;;;;;;;;;;;;;;4988582;28;20008;-62
2022/08/19 06:49:27;;;;;;;;;;;;;;;;;;4990030;28;19974;-63
2022/08/19 06:51:53;;;;;;;;;;;;;;;;;;4985618;28;21501;-63
2022/08/19 06:54:18;;;;;;;;;;;;;;;;;;4983560;28;19914;-64
2022/08/19 06:56:45;;;;;;;;;;;;;;;;;;4983997;28;19914;-63
2022/08/19 06:59:10;;;;;;;;;;;;;;;;;;4991265;28;19910;-64
2022/08/19 07:01:37;;;;;;;;;;;;;;;;;;4978479;28;19937;-63
2022/08/19 07:04:02;;;;;;;;;;;;;;;;;;4976101;28;19910;-64
2022/08/19 07:06:27;;;;;;;;;;;;;;;;;;4984034;28;20289;-63
2022/08/19 07:08:52;;;;;;;;;;;;;;;;;;4985071;28;19922;-63
2022/08/19 07:11:18;;;;;;;;;;;;;;;;;;4981143;28;19925;-62
2022/08/19 07:13:44;;;;;;;;;;;;;;;;;;4983524;28;20020;-64
2022/08/19 07:16:10;;;;;;;;;;;;;;;;;;4990384;28;20278;-62
2022/08/19 07:18:35;;;;;;;;;;;;;;;;;;5001409;28;19929;-64
2022/08/19 07:21:00;;;;;;;;;;;;;;;;;;4994487;28;19953;-69
2022/08/19 07:23:25;;;;;;;;;;;;;;;;;;5004652;28;19968;-67
2022/08/19 07:25:50;;;;;;;;;;;;;;;;;;5010409;28;19917;-67
2022/08/19 07:28:15;;;;;;;;;;;;;;;;;;5007006;28;20401;-66
2022/08/19 07:30:40;;;;;;;;;;;;;;;;;;4994521;28;19939;-65
2022/08/19 07:33:06;;;;;;;;;;;;;;;;;;4987100;28;20366;-64
2022/08/19 07:35:31;;;;;;;;;;;;;;;;;;5008212;28;19914;-66
2022/08/19 07:37:57;;;;;;;;;;;;;;;;;;4998500;28;20012;-62
2022/08/19 07:40:22;;;;;;;;;;;;;;;;;;4991478;28;19969;-65
2022/08/19 07:42:47;;;;;;;;;;;;;;;;;;4996263;28;19921;-66
2022/08/19 07:45:12;;;;;;;;;;;;;;;;;;5002571;28;19924;-64
2022/08/19 07:47:38;;;;;;;;;;;;;;;;;;4999049;28;20271;-65
2022/08/19 07:50:04;;;;;;;;;;;;;;;;;;4989672;28;19914;-65
2022/08/19 07:52:29;;;;;;;;;;;;;;;;;;5001741;28;19917;-65
2022/08/19 07:54:54;;;;;;;;;;;;;;;;;;5009038;28;19920;-65
2022/08/19 07:57:19;;;;;;;;;;;;;;;;;;5013076;28;19909;-65
2022/08/19 07:59:44;;;;;;;;;;;;;;;;;;5012872;28;20289;-65
2022/08/19 08:02:10;;;;;;;;;;;;;;;;;;4999162;28;19918;-65
2022/08/19 08:10:03;;;;;;;;;;;;;;;;;;5012913;28;19920;-65
2022/08/19 08:12:28;;;;;;;;;;;;;;;;;;5019255;28;19917;-65
2022/08/19 08:14:53;;;;;;;;;;;;;;;;;;5033425;28;20020;-66
2022/08/19 08:17:19;;;;;;;;;;;;;;;;;;5026701;28;19929;-67
2022/08/19 08:19:44;;;;;;;;;;;;;;;;;;5028987;28;19920;-66
2022/08/19 08:23:22;;;;;;;;;;;;;;;;;;5009678;28;20000;-66
2022/08/19 08:24:54;;;;;;;;;;;;;;;;;;5026984;28;20441;-66
2022/08/19 08:27:19;;;;;;;;;;;;;;;;;;5019048;28;19996;-64
2022/08/19 08:29:44;;;;;;;;;;;;;;;;;;5012930;28;19924;-65
2022/08/19 08:32:10;;;;;;;;;;;;;;;;;;5014323;28;20318;-66
2022/08/19 08:34:36;;;;;;;;;;;;;;;;;;5033306;28;19963;-66
2022/08/19 08:37:03;;;;;;;;;;;;;;;;;;5018817;28;20434;-66
2022/08/19 08:39:28;;;;;;;;;;;;;;;;;;5023872;28;19910;-65
2022/08/19 08:41:53;;;;;;;;;;;;;;;;;;5012647;28;19963;-65
2022/08/19 08:44:18;;;;;;;;;;;;;;;;;;5029898;28;19913;-65
2022/08/19 08:46:45;;;;;;;;;;;;;;;;;;5020906;28;20420;-65
2022/08/19 08:49:11;;;;;;;;;;;;;;;;;;5032491;28;19947;-65
2022/08/19 08:51:36;;;;;;;;;;;;;;;;;;5016891;28;22306;-66
2022/08/19 08:54:02;;;;;;;;;;;;;;;;;;5012167;28;19909;-65
2022/08/19 08:56:27;;;;;;;;;;;;;;;;;;5020137;28;19932;-66
2022/08/19 08:58:52;;;;;;;;;;;;;;;;;;5027132;28;20358;-66
2022/08/19 09:01:17;;;;;;;;;;;;;;;;;;5027385;28;19913;-67
2022/08/19 09:03:42;;;;;;;;;;;;;;;;;;5022885;28;19913;-65
2022/08/19 09:06:08;;;;;;;;;;;;;;;;;;5011228;28;20336;-64
2022/08/19 09:08:33;;;;;;;;;;;;;;;;;;5022896;28;20274;-65
2022/08/19 09:10:58;;;;;;;;;;;;;;;;;;5016037;28;20040;-66
2022/08/19 09:13:23;;;;;;;;;;;;;;;;;;5004445;28;19917;-65
2022/08/19 09:15:48;;;;;;;;;;;;;;;;;;5008711;28;19917;-65
2022/08/19 09:18:13;;;;;;;;;;;;;;;;;;5019429;28;19930;-65
2022/08/19 09:20:38;;;;;;;;;;;;;;;;;;5014457;28;20016;-65
2022/08/19 09:23:04;;;;;;;;;;;;;;;;;;5003229;28;19913;-66
2022/08/19 09:25:31;;;;;;;;;;;;;;;;;;5023134;28;19917;-65
2022/08/19 09:27:57;;;;;;;;;;;;;;;;;;5013960;28;19939;-63
2022/08/19 09:30:23;;;;;;;;;;;;;;;;;;5024578;28;20053;-63
2022/08/19 09:32:48;;;;;;;;;;;;;;;;;;4998881;28;19941;-65
2022/08/19 09:35:13;;;;;;;;;;;;;;;;;;5024634;28;20393;-63
2022/08/19 09:37:39;;;;;;;;;;;;;;;;;;5021116;28;19963;-64
2022/08/19 09:40:04;;;;;;;;;;;;;;;;;;5009640;28;19929;-66
2022/08/19 09:42:29;;;;;;;;;;;;;;;;;;5026064;28;20374;-66
2022/08/19 09:44:54;;;;;;;;;;;;;;;;;;5028052;28;19967;-67
2022/08/19 09:47:19;;;;;;;;;;;;;;;;;;5020579;28;20346;-66
2022/08/19 09:49:44;;;;;;;;;;;;;;;;;;5026797;28;19913;-66
2022/08/19 09:52:10;;;;;;;;;;;;;;;;;;5015755;28;20025;-66
2022/08/19 09:54:35;;;;;;;;;;;;;;;;;;5007365;28;19913;-65
2022/08/19 09:57:01;;;;;;;;;;;;;;;;;;5017417;28;19920;-68
2022/08/19 09:59:26;;;;;;;;;;;;;;;;;;5021618;28;20312;-67
2022/08/19 10:01:51;;;;;;;;;;;;;;;;;;5020936;28;19909;-68
2022/08/19 10:04:16;;;;;;;;;;;;;;;;;;5017992;28;20013;-68
2022/08/19 10:06:42;;;;;;;;;;;;;;;;;;5024965;28;19913;-65
2022/08/19 10:09:07;;;;;;;;;;;;;;;;;;5000395;28;19929;-67
2022/08/19 10:11:32;;;;;;;;;;;;;;;;;;5013457;28;20321;-67
2022/08/19 10:13:57;;;;;;;;;;;;;;;;;;4995383;28;19913;-67
2022/08/19 10:16:23;;;;;;;;;;;;;;;;;;5004052;28;19968;-67
2022/08/19 10:18:48;;;;;;;;;;;;;;;;;;5026402;28;19975;-67
2022/08/19 10:21:13;;;;;;;;;;;;;;;;;;5023007;28;20373;-66
2022/08/19 10:23:38;;;;;;;;;;;;;;;;;;5013409;28;19960;-66
2022/08/19 10:26:05;;;;;;;;;;;;;;;;;;5022939;28;19976;-67
2022/08/19 10:28:30;;;;;;;;;;;;;;;;;;5001009;28;19914;-67
2022/08/19 10:30:56;;;;;;;;;;;;;;;;;;5019799;28;19909;-68
2022/08/19 10:33:21;;;;;;;;;;;;;;;;;;4990431;28;19979;-67
2022/08/19 10:35:46;;;;;;;;;;;;;;;;;;5009206;28;19917;-67
2022/08/19 10:38:11;;;;;;;;;;;;;;;;;;4990230;28;20342;-67
2022/08/19 10:40:36;;;;;;;;;;;;;;;;;;4995423;28;19976;-67
2022/08/19 10:43:01;;;;;;;;;;;;;;;;;;5005296;28;20489;-67
2022/08/19 10:45:27;;;;;;;;;;;;;;;;;;4990015;28;19929;-67
2022/08/19 10:47:52;;;;;;;;;;;;;;;;;;5003084;28;20374;-67
2022/08/19 10:53:01;;;;;;;;;;;;;;;;;;5004420;28;19979;-68
2022/08/19 10:58:10;;;;;;;;;;;;;;;;;;5000924;28;19964;-68
2022/08/19 11:00:35;;;;;;;;;;;;;;;;;;4999050;28;19914;-68
2022/08/19 11:03:00;;;;;;;;;;;;;;;;;;4999960;28;19968;-68
2022/08/19 11:05:25;;;;;;;;;;;;;;;;;;4998545;28;19921;-67
2022/08/19 11:07:51;;;;;;;;;;;;;;;;;;4988279;28;20385;-62
2022/08/19 11:10:18;;;;;;;;;;;;;;;;;;4993290;28;19920;-67
2022/08/19 11:12:46;;;;;;;;;;;;;;;;;;4996795;28;19917;-75
2022/08/19 11:15:11;;;;;;;;;;;;;;;;;;4996770;28;19924;-72
2022/08/19 11:17:42;;;;;;;;;;;;;;;;;;5001138;28;20309;-66
2022/08/19 11:20:07;;;;;;;;;;;;;;;;;;4999692;28;19918;-73
2022/08/19 11:22:32;;;;;;;;;;;;;;;;;;4980273;28;19914;-60
2022/08/19 11:24:58;;;;;;;;;;;;;;;;;;4999564;28;21151;-69
2022/08/19 11:27:23;;;;;;;;;;;;;;;;;;4983436;28;19914;-71
2022/08/19 11:29:48;;;;;;;;;;;;;;;;;;4992602;28;19914;-69
2022/08/19 11:32:13;;;;;;;;;;;;;;;;;;4991721;28;19993;-68
2022/08/19 11:34:39;;;;;;;;;;;;;;;;;;4989646;28;19914;-66
2022/08/19 11:37:05;;;;;;;;;;;;;;;;;;4987570;28;19913;-64
2022/08/19 11:39:30;;;;;;;;;;;;;;;;;;4987978;28;20222;-68
2022/08/19 11:41:55;;;;;;;;;;;;;;;;;;4989841;28;19918;-65
2022/08/19 11:44:21;;;;;;;;;;;;;;;;;;4975555;28;19982;-75
2022/08/19 11:46:46;;;;;;;;;;;;;;;;;;4986185;28;20430;-64
2022/08/19 11:49:11;;;;;;;;;;;;;;;;;;4992916;28;20331;-72
2022/08/19 11:51:36;;;;;;;;;;;;;;;;;;4975668;28;19914;-70
2022/08/19 11:54:02;;;;;;;;;;;;;;;;;;4989025;28;21680;-70
2022/08/19 11:56:27;;;;;;;;;;;;;;;;;;4973606;28;19918;-65
2022/08/19 11:58:52;;;;;;;;;;;;;;;;;;4988884;28;19945;-68
2022/08/19 12:01:17;;;;;;;;;;;;;;;;;;5003426;28;19917;-69
2022/08/19 12:03:43;;;;;;;;;;;;;;;;;;5006283;28;20467;-68
2022/08/19 12:06:08;;;;;;;;;;;;;;;;;;4994517;28;20035;-69
2022/08/19 12:08:33;;;;;;;;;;;;;;;;;;4990321;28;19914;-69
2022/08/19 12:11:00;;;;;;;;;;;;;;;;;;4990990;28;19921;-69
2022/08/19 12:13:25;;;;;;;;;;;;;;;;;;4982788;28;19978;-68
2022/08/19 12:15:52;;;;;;;;;;;;;;;;;;4975496;28;20239;-68
2022/08/19 12:18:18;;;;;;;;;;;;;;;;;;4970151;28;20361;-68
2022/08/19 12:20:43;;;;;;;;;;;;;;;;;;4975941;28;19992;-68
2022/08/19 12:23:09;;;;;;;;;;;;;;;;;;5002049;28;19984;-68
2022/08/19 12:25:34;;;;;;;;;;;;;;;;;;4992241;28;19922;-68
2022/08/19 12:27:59;;;;;;;;;;;;;;;;;;5008251;28;19921;-69
2022/08/19 12:30:24;;;;;;;;;;;;;;;;;;5011750;28;20289;-69
2022/08/19 12:32:51;;;;;;;;;;;;;;;;;;4994084;28;19914;-69
2022/08/19 12:35:16;;;;;;;;;;;;;;;;;;5013260;28;19913;-69
2022/08/19 12:37:44;;;;;;;;;;;;;;;;;;5011228;28;20278;-68
2022/08/19 12:40:11;;;;;;;;;;;;;;;;;;5021751;28;19923;-69
2022/08/19 12:42:37;;;;;;;;;;;;;;;;;;5010332;28;20444;-69
2022/08/19 12:45:02;;;;;;;;;;;;;;;;;;5001866;28;19913;-69
2022/08/19 12:47:27;;;;;;;;;;;;;;;;;;5010399;28;19920;-69
2022/08/19 12:49:52;;;;;;;;;;;;;;;;;;4995247;28;20020;-69
2022/08/19 12:52:20;;;;;;;;;;;;;;;;;;4993015;28;19913;-68
2022/08/19 12:54:46;;;;;;;;;;;;;;;;;;5010847;28;19925;-68
2022/08/19 12:57:11;;;;;;;;;;;;;;;;;;5011330;28;19967;-69
2022/08/19 12:59:36;;;;;;;;;;;;;;;;;;5011899;28;19975;-69
2022/08/19 13:02:01;;;;;;;;;;;;;;;;;;5011136;28;19959;-69
2022/08/19 13:04:26;;;;;;;;;;;;;;;;;;5013211;28;20366;-68
2022/08/19 13:06:51;;;;;;;;;;;;;;;;;;5012044;28;19914;-68
2022/08/19 13:09:17;;;;;;;;;;;;;;;;;;5009561;28;20570;-69
2022/08/19 13:11:43;;;;;;;;;;;;;;;;;;4993808;28;19910;-69
2022/08/19 13:14:08;;;;;;;;;;;;;;;;;;5007511;28;20008;-69
2022/08/19 13:16:33;;;;;;;;;;;;;;;;;;5003375;28;20325;-69
2022/08/19 13:18:59;;;;;;;;;;;;;;;;;;4992500;28;19972;-68
2022/08/19 13:21:24;;;;;;;;;;;;;;;;;;4986403;28;20366;-68
2022/08/19 13:23:49;;;;;;;;;;;;;;;;;;5007508;28;19913;-68
2022/08/19 13:26:14;;;;;;;;;;;;;;;;;;4989797;28;19980;-68
2022/08/19 13:34:07;;;;;;;;;;;;;;;;;;4995898;28;20174;-69
2022/08/19 13:36:32;;;;;;;;;;;;;;;;;;5007300;28;20286;-68
2022/08/19 13:38:57;;;;;;;;;;;;;;;;;;4996056;28;20001;-69
2022/08/19 13:41:22;;;;;;;;;;;;;;;;;;5003617;28;19914;-69
2022/08/19 13:43:48;;;;;;;;;;;;;;;;;;5003630;28;19984;-68
2022/08/19 13:46:14;;;;;;;;;;;;;;;;;;5002499;28;19933;-68
2022/08/19 13:48:40;;;;;;;;;;;;;;;;;;5010081;28;19913;-68
2022/08/19 13:51:05;;;;;;;;;;;;;;;;;;5006453;28;20362;-68
2022/08/19 13:53:30;;;;;;;;;;;;;;;;;;5004512;28;19980;-69
2022/08/19 13:55:55;;;;;;;;;;;;;;;;;;5005737;28;19913;-63
2022/08/19 13:58:22;;;;;;;;;;;;;;;;;;5011262;28;20022;-68
2022/08/19 14:00:47;;;;;;;;;;;;;;;;;;5006280;28;19914;-68
2022/08/19 14:03:12;;;;;;;;;;;;;;;;;;5007361;28;19921;-68
2022/08/19 14:05:37;;;;;;;;;;;;;;;;;;5006526;28;19921;-68
2022/08/19 14:08:02;;;;;;;;;;;;;;;;;;5001716;28;19960;-68
2022/08/19 14:10:28;;;;;;;;;;;;;;;;;;5011008;28;20004;-68
2022/08/19 14:12:55;;;;;;;;;;;;;;;;;;5003110;28;20020;-68
2022/08/19 14:15:20;;;;;;;;;;;;;;;;;;5008859;28;20289;-68
2022/08/19 14:17:46;;;;;;;;;;;;;;;;;;4983751;28;20009;-68
2022/08/19 14:20:12;;;;;;;;;;;;;;;;;;4991189;28;19918;-68
2022/08/19 14:22:37;;;;;;;;;;;;;;;;;;4986316;28;19993;-69
2022/08/19 14:25:02;;;;;;;;;;;;;;;;;;4996341;28;20306;-69
2022/08/19 14:27:27;;;;;;;;;;;;;;;;;;4952444;28;19964;-69
2022/08/19 14:29:52;;;;;;;;;;;;;;;;;;4983784;28;19921;-69
2022/08/19 14:32:17;;;;;;;;;;;;;;;;;;4986767;28;19921;-69
2022/08/19 14:34:45;;;;;;;;;;;;;;;;;;4973011;28;19914;-69
2022/08/19 14:37:10;;;;;;;;;;;;;;;;;;4990142;28;19914;-68
2022/08/19 14:39:35;;;;;;;;;;;;;;;;;;4993576;28;19960;-69
2022/08/19 14:42:01;;;;;;;;;;;;;;;;;;4996783;28;19925;-69
2022/08/19 14:44:26;;;;;;;;;;;;;;;;;;4985926;28;20271;-69
2022/08/19 14:46:53;;;;;;;;;;;;;;;;;;4977639;28;19918;-70
2022/08/19 14:49:18;;;;;;;;;;;;;;;;;;4987095;28;20409;-68
2022/08/19 14:51:45;;;;;;;;;;;;;;;;;;4954389;28;19918;-68
2022/08/19 14:54:10;;;;;;;;;;;;;;;;;;4983107;28;19957;-67
2022/08/19 14:56:35;;;;;;;;;;;;;;;;;;4987712;28;20399;-67
2022/08/19 14:59:00;;;;;;;;;;;;;;;;;;4967512;28;19925;-68
2022/08/19 15:01:26;;;;;;;;;;;;;;;;;;4973702;28;20005;-60
2022/08/19 15:03:54;;;;;;;;;;;;;;;;;;4989848;28;19914;-60
2022/08/19 15:06:19;;;;;;;;;;;;;;;;;;4983722;28;20023;-75
2022/08/19 15:08:44;;;;;;;;;;;;;;;;;;4968803;28;20370;-65
2022/08/19 15:11:09;;;;;;;;;;;;;;;;;;4990698;28;20049;-69
2022/08/19 15:13:35;;;;;;;;;;;;;;;;;;4984480;28;20425;-67
2022/08/19 15:16:00;;;;;;;;;;;;;;;;;;4995681;28;19910;-67
2022/08/19 15:18:25;;;;;;;;;;;;;;;;;;5005759;28;19931;-69
2022/08/19 15:20:51;;;;;;;;;;;;;;;;;;4985391;28;19918;-69
2022/08/19 15:23:16;;;;;;;;;;;;;;;;;;4990269;28;19921;-70
2022/08/19 15:25:42;;;;;;;;;;;;;;;;;;4978788;28;20275;-68
2022/08/19 15:28:07;;;;;;;;;;;;;;;;;;4977777;28;19954;-69
2022/08/19 15:30:33;;;;;;;;;;;;;;;;;;4979796;28;20009;-75
2022/08/19 15:32:58;;;;;;;;;;;;;;;;;;4991315;28;19961;-75
2022/08/19 15:35:23;;;;;;;;;;;;;;;;;;4994268;28;19996;-75
2022/08/19 15:37:49;;;;;;;;;;;;;;;;;;5009618;28;20271;-74
2022/08/19 15:40:14;;;;;;;;;;;;;;;;;;4999658;28;19914;-74
2022/08/19 15:42:42;;;;;;;;;;;;;;;;;;4998772;28;19911;-69
2022/08/19 15:45:08;;;;;;;;;;;;;;;;;;4994127;28;19925;-69
2022/08/19 15:47:33;;;;;;;;;;;;;;;;;;4993077;28;19956;-68
2022/08/19 15:49:59;;;;;;;;;;;;;;;;;;4993000;28;19949;-68
2022/08/19 15:52:24;;;;;;;;;;;;;;;;;;4984067;28;19929;-69
2022/08/19 15:54:49;;;;;;;;;;;;;;;;;;4982784;28;19925;-68
2022/08/19 16:07:57;;;;;;;;;;;;;;;;;;4986119;28;19921;-68
2022/08/19 16:10:22;;;;;;;;;;;;;;;;;;4985359;28;19914;-67
2022/08/19 16:12:47;;;;;;;;;;;;;;;;;;5005494;28;19914;-67
2022/08/19 16:15:13;;;;;;;;;;;;;;;;;;4988677;28;19933;-68
2022/08/19 16:17:39;;;;;;;;;;;;;;;;;;4983115;28;19929;-76
2022/08/19 16:20:04;;;;;;;;;;;;;;;;;;4992903;28;19914;-62
2022/08/19 16:22:30;;;;;;;;;;;;;;;;;;5009311;28;20007;-75
2022/08/19 16:24:55;;;;;;;;;;;;;;;;;;4983977;28;19913;-75
2022/08/19 16:27:21;;;;;;;;;;;;;;;;;;4996203;28;19918;-75
2022/08/19 16:29:46;;;;;;;;;;;;;;;;;;5003998;28;19913;-75
2022/08/19 16:32:11;;;;;;;;;;;;;;;;;;5010234;28;20297;-75
2022/08/19 16:34:36;;;;;;;;;;;;;;;;;;5004296;28;19917;-76
2022/08/19 16:37:02;;;;;;;;;;;;;;;;;;4988947;28;20318;-75
2022/08/19 16:39:27;;;;;;;;;;;;;;;;;;4989687;28;19965;-74
2022/08/19 16:41:52;;;;;;;;;;;;;;;;;;5005697;28;19920;-74
2022/08/19 16:44:19;;;;;;;;;;;;;;;;;;5009343;28;19929;-74
2022/08/19 16:46:46;;;;;;;;;;;;;;;;;;5002701;28;19917;-75
2022/08/19 16:49:11;;;;;;;;;;;;;;;;;;4987050;28;19921;-75
2022/08/19 16:51:36;;;;;;;;;;;;;;;;;;4996754;28;20413;-74
2022/08/19 16:54:02;;;;;;;;;;;;;;;;;;5007141;28;20049;-74
2022/08/19 16:56:27;;;;;;;;;;;;;;;;;;5004179;28;19915;-74
2022/08/19 16:58:52;;;;;;;;;;;;;;;;;;4983705;28;20298;-74
2022/08/19 17:01:18;;;;;;;;;;;;;;;;;;4983942;28;20021;-74
2022/08/19 17:03:43;;;;;;;;;;;;;;;;;;5005068;28;19991;-74
2022/08/19 17:06:08;;;;;;;;;;;;;;;;;;5005423;28;20026;-74
2022/08/19 17:08:33;;;;;;;;;;;;;;;;;;5005111;28;19917;-74
2022/08/19 17:10:58;;;;;;;;;;;;;;;;;;4994965;28;19909;-73